Time;durP1;ratioP1;P1;durP2;ratioP2;P2;SDS_P1;SDS_P2;PMS_P1;PMS_P2;Temp;Humidity;BMP_temperature;BMP_pressure;BME280_temperature;BME280_humidity;BME280_pressure;Samples;Min_cycle;Max_cycle;Signal;HPM_P1;HPM_P2
2021/11/28 00:01:14;;;;;;;15.80;2.22;;;6.10;99.90;;;;;;4992973;28;20132;-72
2021/11/28 00:03:41;;;;;;;14.10;2.00;;;6.00;99.90;;;;;;4988324;28;20466;-73
2021/11/28 00:06:19;;;;;;;22.38;3.80;;;6.00;99.90;;;;;;4990966;28;20602;-72
2021/11/28 00:11:34;;;;;;;22.20;3.22;;;6.10;99.90;;;;;;4993470;28;20082;-72
2021/11/28 00:16:29;;;;;;;13.25;2.33;;;6.00;99.90;;;;;;4993639;28;20388;-72
2021/11/28 00:18:56;;;;;;;20.13;3.78;;;6.00;99.90;;;;;;4992030;28;20058;-72
2021/11/28 00:21:23;;;;;;;23.45;2.88;;;6.10;99.90;;;;;;4992304;28;20050;-73
2021/11/28 00:23:50;;;;;;;18.25;2.97;;;6.00;99.90;;;;;;4992700;28;20503;-72
2021/11/28 00:26:17;;;;;;;14.32;2.45;;;6.00;99.90;;;;;;4989968;28;20043;-72
2021/11/28 00:28:44;;;;;;;14.55;2.45;;;5.90;99.90;;;;;;4993325;28;20074;-72
2021/11/28 00:31:12;;;;;;;20.13;2.38;;;5.90;99.90;;;;;;4991633;28;20097;-71
2021/11/28 00:33:39;;;;;;;18.00;2.60;;;5.90;99.90;;;;;;4990682;28;20105;-72
2021/11/28 00:36:06;;;;;;;21.27;3.15;;;5.80;99.90;;;;;;4993222;28;20064;-72
2021/11/28 00:38:34;;;;;;;12.73;2.30;;;5.80;99.90;;;;;;4989987;28;20054;-72
2021/11/28 00:41:01;;;;;;;14.85;2.25;;;5.80;99.90;;;;;;4989011;28;20050;-71
2021/11/28 00:43:28;;;;;;;16.08;1.95;;;5.70;99.90;;;;;;4987898;28;20098;-72
2021/11/28 00:45:55;;;;;;;19.73;2.20;;;5.70;99.90;;;;;;4990086;28;20885;-73
2021/11/28 00:48:28;;;;;;;10.90;1.77;;;5.70;99.90;;;;;;4992044;28;20510;-73
2021/11/28 00:51:21;;;;;;;19.42;2.45;;;5.70;99.90;;;;;;4990170;28;20602;-72
2021/11/28 00:53:43;;;;;;;;;;;5.70;99.90;;;;;;4992377;28;20105;-72
2021/11/28 00:56:10;;;;;;;22.55;3.00;;;5.70;99.90;;;;;;4986139;28;19972;-72
2021/11/28 00:58:37;;;;;;;21.30;2.92;;;5.70;99.90;;;;;;4990154;28;21160;-72
2021/11/28 01:01:04;;;;;;;22.25;2.20;;;5.80;99.90;;;;;;4991632;28;20046;-72
2021/11/28 01:03:32;;;;;;;11.65;2.45;;;5.80;99.90;;;;;;4992948;28;20125;-72
2021/11/28 01:05:58;;;;;;;15.77;2.08;;;5.80;99.90;;;;;;4989804;28;20050;-72
2021/11/28 01:08:25;;;;;;;14.60;2.25;;;5.80;99.90;;;;;;4987827;28;20065;-72
2021/11/28 01:10:52;;;;;;;27.55;3.17;;;5.80;99.90;;;;;;4991830;28;20050;-72
2021/11/28 01:13:20;;;;;;;13.15;2.42;;;5.70;99.90;;;;;;4992334;28;20046;-72
2021/11/28 01:15:47;;;;;;;17.42;2.50;;;5.70;99.90;;;;;;4989533;28;20077;-72
2021/11/28 01:18:13;;;;;;;16.45;2.42;;;5.70;99.90;;;;;;4987639;28;20055;-72
2021/11/28 01:20:41;;;;;;;17.00;2.72;;;5.70;99.90;;;;;;4990304;28;20058;-72
2021/11/28 01:23:07;;;;;;;25.90;2.70;;;5.70;99.90;;;;;;4991407;28;20125;-72
2021/11/28 01:25:34;;;;;;;23.95;2.47;;;5.60;99.90;;;;;;4991406;28;20100;-72
2021/11/28 01:28:01;;;;;;;18.50;3.70;;;5.50;99.90;;;;;;4992147;28;20637;-73
2021/11/28 01:30:30;;;;;;;15.70;2.13;;;5.50;99.90;;;;;;4980567;28;20469;-72
2021/11/28 01:32:57;;;;;;;14.55;2.42;;;5.50;99.90;;;;;;4991015;28;20081;-72
2021/11/28 01:35:24;;;;;;;15.65;2.58;;;5.50;99.90;;;;;;4991212;28;20054;-72
2021/11/28 01:37:51;;;;;;;19.10;2.10;;;5.50;99.90;;;;;;4984502;28;20051;-72
2021/11/28 01:40:20;;;;;;;18.92;2.85;;;5.50;99.90;;;;;;4988951;28;20069;-72
2021/11/28 01:42:50;;;;;;;12.30;2.00;;;5.40;99.90;;;;;;4989808;28;20445;-73
2021/11/28 01:45:20;;;;;;;18.38;2.72;;;5.40;99.90;;;;;;4988227;28;20046;-73
2021/11/28 01:47:47;;;;;;;15.90;3.13;;;5.40;99.90;;;;;;4990525;28;20101;-72
2021/11/28 01:50:14;;;;;;;16.63;1.95;;;5.50;99.90;;;;;;4988836;28;20110;-72
2021/11/28 01:52:41;;;;;;;15.65;2.38;;;5.50;99.90;;;;;;4982393;28;20066;-72
2021/11/28 01:55:15;;;;;;;21.42;2.75;;;5.40;99.90;;;;;;4989012;28;20422;-72
2021/11/28 01:57:43;;;;;;;15.40;2.42;;;5.30;99.90;;;;;;4999290;28;20057;-72
2021/11/28 02:00:19;;;;;;;18.15;2.75;;;5.30;99.90;;;;;;4991834;28;20148;-72
2021/11/28 02:02:46;;;;;;;12.07;2.45;;;5.40;99.90;;;;;;4986757;28;20054;-72
2021/11/28 02:05:15;;;;;;;15.07;2.70;;;5.30;99.90;;;;;;4990021;28;20043;-72
2021/11/28 02:07:42;;;;;;;16.05;2.40;;;5.20;99.90;;;;;;4990404;28;20537;-72
2021/11/28 02:10:11;;;;;;;13.77;2.65;;;5.30;99.90;;;;;;4988422;28;20050;-72
2021/11/28 02:12:38;;;;;;;16.30;2.25;;;5.30;99.90;;;;;;4987639;28;20045;-73
2021/11/28 02:15:09;;;;;;;16.85;2.47;;;5.40;99.90;;;;;;4989673;28;20457;-72
2021/11/28 02:17:36;;;;;;;12.98;1.75;;;5.30;99.90;;;;;;4985139;28;20042;-72
2021/11/28 02:20:06;;;;;;;19.05;2.28;;;5.50;99.90;;;;;;4990122;28;20105;-72
2021/11/28 02:22:33;;;;;;;12.85;2.35;;;5.40;99.90;;;;;;4987824;28;20050;-72
2021/11/28 02:25:10;;;;;;;17.63;3.15;;;5.40;99.90;;;;;;4987330;28;20108;-72
2021/11/28 02:27:37;;;;;;;8.80;1.70;;;5.30;99.90;;;;;;4990125;28;20097;-72
2021/11/28 02:30:07;;;;;;;20.67;2.70;;;5.20;99.90;;;;;;4982894;28;20054;-72
2021/11/28 02:32:34;;;;;;;13.43;1.80;;;5.20;99.90;;;;;;4989144;28;20509;-72
2021/11/28 02:35:01;;;;;;;18.92;2.38;;;5.20;99.90;;;;;;4987510;28;20103;-72
2021/11/28 02:37:28;;;;;;;13.88;2.08;;;5.20;99.90;;;;;;4991271;28;20128;-72
2021/11/28 02:39:58;;;;;;;16.95;2.70;;;5.20;99.90;;;;;;4989827;28;20469;-72
2021/11/28 02:42:25;;;;;;;10.57;2.15;;;5.40;99.90;;;;;;4986996;28;20054;-71
2021/11/28 02:44:52;;;;;;;25.38;3.30;;;5.30;99.90;;;;;;4989174;28;20050;-72
2021/11/28 02:47:21;;;;;;;14.57;1.60;;;5.30;99.90;;;;;;4984321;28;20075;-72
2021/11/28 02:49:48;;;;;;;25.30;2.80;;;5.40;99.90;;;;;;4985230;28;20495;-72
2021/11/28 02:52:15;;;;;;;11.48;2.05;;;5.30;99.90;;;;;;4989245;28;20081;-72
2021/11/28 02:54:42;;;;;;;9.32;1.58;;;5.30;99.90;;;;;;4991583;28;20518;-73
2021/11/28 02:57:10;;;;;;;15.70;1.92;;;5.40;99.90;;;;;;4994248;28;20046;-72
2021/11/28 02:59:37;;;;;;;12.35;2.00;;;5.40;99.90;;;;;;4991846;28;20042;-72
2021/11/28 03:02:05;;;;;;;13.30;1.77;;;5.40;99.90;;;;;;4996122;28;20498;-72
2021/11/28 03:04:32;;;;;;;12.55;1.83;;;5.30;99.90;;;;;;4993934;28;20054;-72
2021/11/28 03:06:59;;;;;;;16.00;1.67;;;5.20;99.90;;;;;;4991943;28;20038;-72
2021/11/28 03:09:26;;;;;;;14.20;1.98;;;5.20;99.90;;;;;;4996073;28;20050;-72
2021/11/28 03:11:53;;;;;;;10.43;2.83;;;5.30;99.90;;;;;;4996260;28;20050;-72
2021/11/28 03:14:20;;;;;;;10.65;1.60;;;5.40;99.90;;;;;;4988392;28;20602;-73
2021/11/28 03:16:47;;;;;;;12.80;2.28;;;5.30;99.90;;;;;;4996038;28;20097;-72
2021/11/28 03:19:14;;;;;;;16.25;2.47;;;5.30;99.90;;;;;;4997245;28;20062;-72
2021/11/28 03:21:42;;;;;;;9.45;1.80;;;5.40;99.90;;;;;;4993410;28;20469;-72
2021/11/28 03:24:09;;;;;;;12.55;1.95;;;5.30;99.90;;;;;;5007697;28;20596;-72
2021/11/28 03:26:41;;;;;;;15.02;2.13;;;5.40;99.90;;;;;;4996117;28;20089;-72
2021/11/28 03:29:08;;;;;;;9.18;1.83;;;5.40;99.90;;;;;;4992699;28;20047;-72
2021/11/28 03:31:38;;;;;;;14.13;1.50;;;5.40;99.90;;;;;;4992393;28;20051;-72
2021/11/28 03:34:07;;;;;;;10.75;2.40;;;5.30;99.90;;;;;;4995956;28;20046;-73
2021/11/28 03:36:38;;;;;;;15.18;1.98;;;5.40;99.90;;;;;;4993783;28;20105;-72
2021/11/28 03:39:07;;;;;;;6.97;1.92;;;5.40;99.90;;;;;;4996851;28;20046;-73
2021/11/28 03:41:34;;;;;;;32.25;2.60;;;5.40;99.90;;;;;;4991122;28;20078;-72
2021/11/28 03:44:04;;;;;;;8.02;1.55;;;5.30;99.90;;;;;;4995702;28;20046;-72
2021/11/28 03:46:31;;;;;;;9.35;2.33;;;5.30;99.90;;;;;;4992173;28;20089;-73
2021/11/28 03:48:59;;;;;;;10.23;1.95;;;5.30;99.90;;;;;;5008457;28;20046;-72
2021/11/28 03:51:27;;;;;;;6.25;1.85;;;5.40;99.90;;;;;;4995723;28;20046;-72
2021/11/28 03:53:54;;;;;;;16.15;2.78;;;5.40;99.90;;;;;;4994937;28;20050;-72
2021/11/28 03:56:21;;;;;;;16.70;2.08;;;5.50;99.90;;;;;;4990491;28;20082;-71
2021/11/28 03:58:52;;;;;;;12.75;1.50;;;5.50;99.90;;;;;;4995664;28;20082;-72
2021/11/28 04:01:20;;;;;;;18.60;2.10;;;5.50;99.90;;;;;;4990412;28;20051;-72
2021/11/28 04:03:48;;;;;;;9.82;1.48;;;5.50;99.90;;;;;;4993959;28;20061;-72
2021/11/28 04:06:15;;;;;;;9.68;2.60;;;5.60;99.90;;;;;;4988827;28;20042;-73
2021/11/28 04:08:42;;;;;;;14.95;1.80;;;5.60;99.90;;;;;;4986964;28;20105;-72
2021/11/28 04:11:09;;;;;;;12.27;1.70;;;5.50;99.90;;;;;;4988358;28;20101;-72
2021/11/28 04:13:37;;;;;;;17.60;1.52;;;5.50;99.90;;;;;;4988177;28;20101;-72
2021/11/28 04:16:04;;;;;;;11.93;2.17;;;5.50;99.90;;;;;;4988511;28;20105;-72
2021/11/28 04:18:32;;;;;;;9.43;1.65;;;5.60;99.90;;;;;;4984166;28;20474;-72
2021/11/28 04:20:59;;;;;;;10.63;1.67;;;5.60;99.90;;;;;;4982880;28;20130;-72
2021/11/28 04:23:26;;;;;;;13.27;1.33;;;5.60;99.90;;;;;;4988586;28;20529;-72
2021/11/28 04:25:53;;;;;;;14.18;1.60;;;5.60;99.90;;;;;;4988704;28;20105;-72
2021/11/28 04:28:20;;;;;;;11.30;2.35;;;5.60;99.90;;;;;;4990707;28;20101;-72
2021/11/28 04:30:47;;;;;;;12.68;2.17;;;5.60;99.90;;;;;;4992130;28;20132;-72
2021/11/28 04:33:15;;;;;;;9.80;1.67;;;5.50;99.90;;;;;;4985829;28;20562;-72
2021/11/28 04:35:43;;;;;;;11.23;1.52;;;5.50;99.90;;;;;;4991990;28;20606;-72
2021/11/28 04:38:11;;;;;;;19.73;1.70;;;5.50;99.90;;;;;;4993434;28;20050;-73
2021/11/28 04:40:38;;;;;;;9.32;1.80;;;5.40;99.90;;;;;;4990170;28;20046;-72
2021/11/28 04:43:05;;;;;;;7.43;1.23;;;5.40;99.90;;;;;;4991874;28;20046;-72
2021/11/28 04:45:32;;;;;;;13.57;1.80;;;5.40;99.90;;;;;;4987249;28;20062;-72
2021/11/28 04:47:59;;;;;;;10.98;1.63;;;5.50;99.90;;;;;;4989924;28;20054;-72
2021/11/28 04:50:26;;;;;;;19.25;3.97;;;5.40;99.90;;;;;;4991025;28;20651;-72
2021/11/28 04:52:53;;;;;;;5.45;1.27;;;5.30;99.90;;;;;;4992505;28;20050;-72
2021/11/28 04:55:20;;;;;;;10.57;1.60;;;5.30;99.90;;;;;;4987396;28;20104;-72
2021/11/28 04:57:47;;;;;;;13.75;1.95;;;5.50;99.90;;;;;;4991793;28;20105;-72
2021/11/28 05:00:20;;;;;;;18.55;1.58;;;5.50;99.90;;;;;;4988742;28;20050;-72
2021/11/28 05:02:47;;;;;;;9.85;1.90;;;5.40;99.90;;;;;;4990697;28;20073;-72
2021/11/28 05:05:16;;;;;;;9.63;1.88;;;5.30;99.90;;;;;;4987201;28;20066;-72
2021/11/28 05:07:43;;;;;;;9.45;1.48;;;5.40;99.90;;;;;;4988952;28;20530;-72
2021/11/28 05:10:11;;;;;;;12.43;2.25;;;5.40;99.90;;;;;;4989554;28;20097;-72
2021/11/28 05:12:39;;;;;;;14.38;1.85;;;5.50;99.90;;;;;;4989631;28;20042;-72
2021/11/28 05:15:07;;;;;;;11.57;2.22;;;5.40;99.90;;;;;;4992275;28;20049;-73
2021/11/28 05:17:34;;;;;;;12.85;1.73;;;5.40;99.90;;;;;;4988124;28;20082;-72
2021/11/28 05:20:02;;;;;;;10.20;1.40;;;5.30;99.90;;;;;;4991129;28;20054;-72
2021/11/28 05:22:29;;;;;;;14.10;1.60;;;5.30;99.90;;;;;;4992366;28;20097;-72
2021/11/28 05:24:56;;;;;;;12.35;1.70;;;5.30;99.90;;;;;;4987341;28;20156;-72
2021/11/28 05:27:23;;;;;;;12.13;1.90;;;5.20;99.90;;;;;;4988632;28;20104;-72
2021/11/28 05:29:51;;;;;;;10.68;1.48;;;5.20;99.90;;;;;;4990564;28;20042;-72
2021/11/28 05:32:18;;;;;;;10.68;1.33;;;5.40;99.90;;;;;;4987126;28;20434;-72
2021/11/28 05:34:45;;;;;;;18.25;1.80;;;5.50;99.90;;;;;;4988114;28;20596;-72
2021/11/28 05:37:13;;;;;;;10.10;1.67;;;5.50;99.90;;;;;;4990948;28;20387;-72
2021/11/28 05:39:40;;;;;;;14.00;1.77;;;5.50;99.90;;;;;;4991007;28;20054;-72
2021/11/28 05:42:07;;;;;;;23.50;2.35;;;5.50;99.90;;;;;;4990465;28;20077;-72
2021/11/28 05:44:34;;;;;;;7.13;1.50;;;5.40;99.90;;;;;;4987321;28;20046;-72
2021/11/28 05:47:01;;;;;;;17.48;1.95;;;5.50;99.90;;;;;;4986694;28;20058;-72
2021/11/28 05:49:28;;;;;;;10.35;1.98;;;5.50;99.90;;;;;;4988130;28;20125;-72
2021/11/28 05:51:55;;;;;;;12.65;1.20;;;5.40;99.90;;;;;;4991703;28;20553;-73
2021/11/28 05:54:22;;;;;;;10.88;1.25;;;5.40;99.90;;;;;;4987653;28;21045;-72
2021/11/28 05:56:50;;;;;;;22.10;6.70;;;5.40;99.90;;;;;;4990095;28;20065;-72
2021/11/28 05:59:17;;;;;;;7.50;1.20;;;5.50;99.90;;;;;;4990032;28;20046;-73
2021/11/28 06:01:44;;;;;;;10.40;1.52;;;5.50;99.90;;;;;;4987464;28;20462;-73
2021/11/28 06:04:11;;;;;;;13.95;1.80;;;5.50;99.90;;;;;;4987768;28;20046;-73
2021/11/28 06:06:38;;;;;;;18.05;2.13;;;5.50;99.90;;;;;;4989785;28;20038;-73
2021/11/28 06:09:05;;;;;;;14.15;1.88;;;5.40;99.90;;;;;;4990406;28;20046;-73
2021/11/28 06:11:31;;;;;;;13.00;2.13;;;5.40;99.90;;;;;;4987359;28;20046;-73
2021/11/28 06:13:58;;;;;;;15.65;1.58;;;5.40;99.90;;;;;;4991394;28;20054;-73
2021/11/28 06:16:25;;;;;;;9.10;1.30;;;5.40;99.90;;;;;;4990119;28;20057;-73
2021/11/28 06:18:52;;;;;;;14.52;1.83;;;5.40;99.90;;;;;;4989630;28;20049;-73
2021/11/28 06:21:19;;;;;;;21.33;1.77;;;5.50;99.90;;;;;;4983711;28;20046;-73
2021/11/28 06:23:46;;;;;;;10.70;1.77;;;5.60;99.90;;;;;;4989898;28;20050;-72
2021/11/28 06:26:13;;;;;;;14.77;1.40;;;5.60;99.90;;;;;;4991075;28;20050;-73
2021/11/28 06:28:40;;;;;;;12.57;1.58;;;5.40;99.90;;;;;;4987836;28;20458;-72
2021/11/28 06:31:07;;;;;;;8.40;1.77;;;5.50;99.90;;;;;;4989479;28;20108;-72
2021/11/28 06:33:34;;;;;;;10.73;2.25;;;5.50;99.90;;;;;;4985627;28;20121;-72
2021/11/28 06:36:02;;;;;;;12.68;2.30;;;5.50;99.90;;;;;;4988233;28;20096;-72
2021/11/28 06:38:30;;;;;;;10.93;1.65;;;5.40;99.90;;;;;;4991177;28;20054;-72
2021/11/28 06:40:57;;;;;;;8.38;1.75;;;5.30;99.90;;;;;;4987363;28;20050;-72
2021/11/28 06:43:24;;;;;;;13.68;1.95;;;5.40;99.90;;;;;;4989808;28;20046;-72
2021/11/28 06:45:51;;;;;;;18.92;2.33;;;5.30;99.90;;;;;;4989962;28;20054;-72
2021/11/28 06:48:18;;;;;;;15.32;2.00;;;5.30;99.90;;;;;;4986993;28;20144;-73
2021/11/28 06:50:45;;;;;;;6.57;2.17;;;5.20;99.90;;;;;;5004205;28;20124;-72
2021/11/28 06:53:12;;;;;;;12.70;2.05;;;5.10;99.90;;;;;;4988109;28;20051;-72
2021/11/28 06:55:38;;;;;;;13.13;1.80;;;5.00;99.90;;;;;;4985243;28;20042;-72
2021/11/28 06:58:05;;;;;;;11.63;1.95;;;4.90;99.90;;;;;;4989837;28;20046;-72
2021/11/28 07:00:32;;;;;;;20.63;2.40;;;4.90;99.90;;;;;;4989462;28;20399;-72
2021/11/28 07:02:59;;;;;;;15.25;1.90;;;4.90;99.90;;;;;;4984963;28;20050;-72
2021/11/28 07:05:27;;;;;;;14.52;1.98;;;4.90;99.90;;;;;;4988558;28;20054;-72
2021/11/28 07:07:54;;;;;;;9.45;1.48;;;4.90;99.90;;;;;;4985908;28;20055;-72
2021/11/28 07:10:21;;;;;;;13.18;2.20;;;4.90;99.90;;;;;;4989755;28;20081;-72
2021/11/28 07:12:47;;;;;;;10.32;2.40;;;4.90;99.90;;;;;;4989786;28;20047;-72
2021/11/28 07:15:14;;;;;;;13.43;2.00;;;4.90;99.90;;;;;;4988048;28;20038;-72
2021/11/28 07:17:42;;;;;;;4.18;1.50;;;4.80;99.90;;;;;;4990539;28;20120;-72
2021/11/28 07:20:09;;;;;;;14.50;1.88;;;4.80;99.90;;;;;;4990722;28;20039;-72
2021/11/28 07:22:36;;;;;;;10.07;1.65;;;4.80;99.90;;;;;;4987744;28;20113;-72
2021/11/28 07:25:04;;;;;;;14.15;1.52;;;4.80;99.90;;;;;;4989599;28;20038;-72
2021/11/28 07:27:31;;;;;;;25.50;2.38;;;4.80;99.90;;;;;;4986691;28;20640;-72
2021/11/28 07:30:00;;;;;;;10.98;1.85;;;4.80;99.90;;;;;;4981930;28;20050;-72
2021/11/28 07:32:28;;;;;;;14.77;2.10;;;4.80;99.90;;;;;;4985037;28;20097;-72
2021/11/28 07:34:55;;;;;;;15.23;1.90;;;4.70;99.90;;;;;;4988219;28;20054;-71
2021/11/28 07:37:22;;;;;;;10.50;1.60;;;4.80;99.90;;;;;;4988517;28;20134;-72
2021/11/28 07:39:49;;;;;;;16.35;1.77;;;5.00;99.90;;;;;;4985606;28;20070;-71
2021/11/28 07:42:16;;;;;;;14.25;1.80;;;5.00;99.90;;;;;;4987482;28;20046;-71
2021/11/28 07:44:43;;;;;;;21.00;2.53;;;5.10;99.90;;;;;;4984784;28;20067;-71
2021/11/28 07:47:10;;;;;;;12.20;1.73;;;5.00;99.90;;;;;;4993387;28;20085;-71
2021/11/28 07:49:37;;;;;;;11.65;2.10;;;5.10;99.90;;;;;;5006100;28;20576;-72
2021/11/28 07:52:04;;;;;;;17.50;1.67;;;5.20;99.90;;;;;;4990769;28;20073;-73
2021/11/28 07:54:32;;;;;;;7.95;1.75;;;5.20;99.90;;;;;;4991915;28;20043;-72
2021/11/28 07:57:01;;;;;;;13.65;1.80;;;5.30;99.90;;;;;;4988964;28;20050;-72
2021/11/28 07:59:34;;;;;;;10.82;2.13;;;5.30;99.90;;;;;;4990374;28;20042;-72
2021/11/28 08:02:01;;;;;;;17.02;2.13;;;5.40;99.90;;;;;;4990191;28;20046;-71
2021/11/28 08:04:29;;;;;;;8.32;1.45;;;5.40;99.90;;;;;;4990087;28;20077;-72
2021/11/28 08:06:56;;;;;;;10.50;1.73;;;5.50;99.90;;;;;;4989299;28;20043;-72
2021/11/28 08:09:23;;;;;;;14.38;2.35;;;5.50;99.90;;;;;;4986794;28;20089;-71
2021/11/28 08:11:50;;;;;;;19.13;1.75;;;5.60;99.90;;;;;;4988740;28;20050;-71
2021/11/28 08:14:18;;;;;;;13.57;1.85;;;5.60;99.90;;;;;;4985645;28;20050;-71
2021/11/28 08:16:45;;;;;;;12.40;1.95;;;5.70;99.90;;;;;;4991383;28;20057;-71
2021/11/28 08:19:12;;;;;;;12.98;1.65;;;5.70;99.90;;;;;;4983669;28;20050;-71
2021/11/28 08:21:38;;;;;;;9.95;2.42;;;5.70;99.90;;;;;;4987532;28;20050;-71
2021/11/28 08:24:06;;;;;;;18.60;2.17;;;5.70;99.90;;;;;;4986732;28;20039;-72
2021/11/28 08:26:35;;;;;;;9.88;1.60;;;5.70;99.90;;;;;;4986136;28;20047;-72
2021/11/28 08:29:04;;;;;;;9.88;1.52;;;5.60;99.90;;;;;;4988036;28;20071;-72
2021/11/28 08:31:32;;;;;;;9.75;1.65;;;5.60;99.90;;;;;;4989685;28;20074;-72
2021/11/28 08:33:59;;;;;;;16.40;2.40;;;5.60;99.90;;;;;;4986675;28;20100;-71
2021/11/28 08:36:26;;;;;;;11.93;1.80;;;5.50;99.90;;;;;;4986304;28;20050;-71
2021/11/28 08:38:54;;;;;;;10.13;1.50;;;5.60;99.90;;;;;;4984684;28;20403;-72
2021/11/28 08:41:22;;;;;;;10.82;2.05;;;5.60;99.90;;;;;;4985788;28;20042;-72
2021/11/28 08:43:51;;;;;;;9.05;2.60;;;5.60;99.90;;;;;;4988639;28;20070;-71
2021/11/28 08:46:19;;;;;;;17.98;2.25;;;5.60;99.90;;;;;;4986503;28;20050;-71
2021/11/28 08:48:46;;;;;;;12.48;2.30;;;5.60;99.90;;;;;;4986672;28;20049;-72
2021/11/28 08:51:15;;;;;;;13.10;1.80;;;5.60;99.90;;;;;;4989040;28;20095;-72
2021/11/28 08:53:43;;;;;;;13.30;1.48;;;5.60;99.90;;;;;;4998629;28;20479;-71
2021/11/28 08:56:10;;;;;;;9.38;1.90;;;5.70;99.90;;;;;;4985784;28;20129;-71
2021/11/28 08:58:37;;;;;;;16.45;1.42;;;5.70;99.90;;;;;;4987519;28;20077;-71
2021/11/28 09:01:05;;;;;;;16.58;1.80;;;5.70;99.90;;;;;;4988619;28;20092;-72
2021/11/28 09:03:32;;;;;;;6.18;1.45;;;5.70;99.90;;;;;;4993742;28;20049;-71
2021/11/28 09:05:59;;;;;;;13.65;1.55;;;5.70;99.90;;;;;;4988640;28;20046;-72
2021/11/28 09:08:27;;;;;;;12.88;1.35;;;5.80;99.90;;;;;;5005763;28;20074;-72
2021/11/28 09:10:54;;;;;;;16.55;1.77;;;5.90;99.90;;;;;;4986898;28;20098;-72
2021/11/28 09:13:21;;;;;;;12.98;2.08;;;6.00;99.90;;;;;;4989190;28;20042;-72
2021/11/28 09:15:48;;;;;;;13.40;1.83;;;6.00;99.90;;;;;;4990980;28;20406;-72
2021/11/28 09:18:39;;;;;;;7.95;1.77;;;6.20;99.90;;;;;;4988726;28;20481;-71
2021/11/28 09:21:06;;;;;;;14.23;2.40;;;6.30;99.90;;;;;;4988814;28;20046;-72
2021/11/28 09:26:20;;;;;;;17.92;2.00;;;6.40;99.90;;;;;;4989007;28;20053;-71
2021/11/28 09:28:47;;;;;;;15.90;1.90;;;6.40;99.90;;;;;;4987985;28;20046;-72
2021/11/28 09:31:14;;;;;;;11.00;1.88;;;6.40;99.90;;;;;;4985739;28;20050;-72
2021/11/28 09:33:41;;;;;;;17.50;1.80;;;6.50;99.90;;;;;;4990243;28;20060;-72
2021/11/28 09:36:10;;;;;;;10.93;1.92;;;6.50;99.90;;;;;;4989097;28;20058;-71
2021/11/28 09:38:37;;;;;;;14.13;2.20;;;6.60;99.90;;;;;;4988636;28;20050;-72
2021/11/28 09:41:10;;;;;;;11.23;1.90;;;6.70;99.90;;;;;;4987863;28;20046;-71
2021/11/28 09:43:43;;;;;;;11.32;2.00;;;6.80;99.90;;;;;;4989473;28;20066;-71
2021/11/28 09:46:10;;;;;;;11.80;2.10;;;6.90;99.90;;;;;;4988573;28;20552;-71
2021/11/28 09:48:37;;;;;;;20.98;2.90;;;7.00;99.90;;;;;;4986222;28;20081;-72
2021/11/28 09:51:08;;;;;;;14.45;2.20;;;7.20;99.90;;;;;;4988086;28;20439;-72
2021/11/28 09:53:37;;;;;;;15.32;2.30;;;7.30;99.90;;;;;;4989775;28;20045;-72
2021/11/28 09:56:06;;;;;;;17.67;2.70;;;7.30;99.90;;;;;;4986674;28;20054;-72
2021/11/28 09:58:35;;;;;;;21.52;2.83;;;7.30;99.90;;;;;;4987416;28;20046;-72
2021/11/28 10:01:03;;;;;;;20.83;2.60;;;7.20;99.90;;;;;;4989308;28;20038;-72
2021/11/28 10:03:30;;;;;;;13.23;1.75;;;7.10;99.90;;;;;;4990632;28;20074;-72
2021/11/28 10:05:57;;;;;;;12.23;1.92;;;7.10;99.90;;;;;;4987271;28;20144;-72
2021/11/28 10:08:25;;;;;;;9.13;1.60;;;7.10;99.90;;;;;;4988898;28;20077;-72
2021/11/28 10:11:17;;;;;;;16.90;2.78;;;7.20;99.90;;;;;;4990893;28;20458;-72
2021/11/28 10:13:50;;;;;;;9.93;1.67;;;7.20;99.90;;;;;;4986593;28;20062;-71
2021/11/28 10:16:18;;;;;;;16.35;1.83;;;7.30;99.90;;;;;;4985520;28;20726;-72
2021/11/28 10:18:46;;;;;;;16.35;2.42;;;7.40;99.90;;;;;;4985707;28;20054;-71
2021/11/28 10:21:13;;;;;;;13.18;1.50;;;7.40;99.90;;;;;;4988127;28;20052;-71
2021/11/28 10:24:06;;;;;;;10.25;1.70;;;7.40;99.90;;;;;;4989798;28;20050;-71
2021/11/28 10:26:34;;;;;;;10.77;2.13;;;7.40;99.90;;;;;;4988754;28;20050;-71
2021/11/28 10:29:09;;;;;;;22.13;2.17;;;7.30;99.90;;;;;;4985199;28;20038;-72
2021/11/28 10:31:44;;;;;;;14.52;2.30;;;7.30;99.90;;;;;;4988208;28;20170;-72
2021/11/28 10:34:24;;;;;;;15.35;1.80;;;7.30;99.90;;;;;;4988808;28;20082;-71
2021/11/28 10:37:07;;;;;;;17.98;1.92;;;7.20;99.90;;;;;;4986608;28;20046;-71
2021/11/28 10:39:43;;;;;;;13.82;1.70;;;7.10;99.90;;;;;;5004478;28;20047;-72
2021/11/28 10:42:37;;;;;;;15.40;2.38;;;7.10;99.90;;;;;;4988998;28;20140;-72
2021/11/28 10:45:14;;;;;;;15.95;1.58;;;7.20;99.90;;;;;;4987781;28;20657;-71
2021/11/28 10:47:52;;;;;;;14.07;2.17;;;7.30;99.90;;;;;;5000571;28;20121;-71
2021/11/28 10:50:26;;;;;;;10.68;1.38;;;7.20;99.90;;;;;;5003881;28;20046;-72
2021/11/28 10:53:04;;;;;;;11.05;1.42;;;7.20;99.90;;;;;;4986313;28;20069;-71
2021/11/28 10:55:37;;;;;;;12.60;1.58;;;7.20;99.90;;;;;;5004041;28;20042;-72
2021/11/28 10:58:17;;;;;;;16.17;1.50;;;7.10;99.90;;;;;;4989682;28;20050;-71
2021/11/28 11:00:50;;;;;;;19.08;1.90;;;7.20;99.90;;;;;;4983308;28;20511;-71
2021/11/28 11:03:20;;;;;;;22.02;2.33;;;7.10;99.90;;;;;;4988678;28;20046;-72
2021/11/28 11:05:50;;;;;;;21.63;2.15;;;7.10;99.90;;;;;;4986180;28;20110;-71
2021/11/28 11:08:18;;;;;;;16.48;1.90;;;7.00;99.90;;;;;;4999994;28;20046;-71
2021/11/28 11:10:47;;;;;;;5.75;1.00;;;7.10;99.90;;;;;;4984170;28;20055;-71
2021/11/28 11:13:18;;;;;;;8.20;1.38;;;7.30;99.90;;;;;;4983394;28;20042;-71
2021/11/28 11:15:50;;;;;;;23.70;1.92;;;7.30;99.90;;;;;;4988843;28;20043;-71
2021/11/28 11:18:19;;;;;;;25.15;1.98;;;7.40;99.90;;;;;;4988560;28;20073;-72
2021/11/28 11:20:49;;;;;;;33.63;3.38;;;7.50;99.90;;;;;;4990767;28;20186;-71
2021/11/28 11:23:40;;;;;;;19.05;2.20;;;7.50;99.90;;;;;;4990175;28;20039;-71
2021/11/28 11:26:21;;;;;;;20.80;2.10;;;7.60;99.90;;;;;;4988865;28;20046;-72
2021/11/28 11:29:10;;;;;;;11.25;1.73;;;7.60;99.90;;;;;;4988996;28;20105;-71
2021/11/28 11:31:40;;;;;;;17.15;1.55;;;7.60;99.90;;;;;;4991081;28;20104;-72
2021/11/28 11:34:30;;;;;;;7.43;1.67;;;7.50;99.90;;;;;;4989712;28;20769;-72
2021/11/28 11:37:01;;;;;;;9.38;1.08;;;7.40;99.90;;;;;;4989206;28;20054;-71
2021/11/28 11:39:31;;;;;;;6.88;1.20;;;7.20;99.90;;;;;;4989842;28;20042;-71
2021/11/28 11:41:59;;;;;;;15.35;1.50;;;7.10;99.90;;;;;;4989390;28;20092;-71
2021/11/28 11:44:27;;;;;;;9.23;1.40;;;7.20;99.90;;;;;;4986993;28;20104;-71
2021/11/28 11:46:56;;;;;;;9.88;2.08;;;7.30;99.90;;;;;;4991084;28;20043;-71
2021/11/28 11:49:25;;;;;;;5.53;1.20;;;7.10;99.90;;;;;;4990155;28;20105;-71
2021/11/28 11:51:52;;;;;;;8.63;1.38;;;6.90;99.90;;;;;;4986862;28;20120;-71
2021/11/28 11:54:22;;;;;;;14.05;1.23;;;7.00;99.90;;;;;;4988148;28;20100;-71
2021/11/28 11:57:16;;;;;;;10.32;1.63;;;7.20;99.90;;;;;;4988056;28;20108;-72
2021/11/28 12:00:05;;;;;;;9.50;1.92;;;7.30;99.90;;;;;;5006643;28;20054;-72
2021/11/28 12:02:37;;;;;;;6.90;1.30;;;7.50;99.90;;;;;;4986605;28;20066;-72
2021/11/28 12:05:25;;;;;;;6.65;1.75;;;7.60;99.90;;;;;;4990200;28;20046;-72
2021/11/28 12:08:08;;;;;;;11.27;1.45;;;7.50;99.90;;;;;;4989990;28;20097;-71
2021/11/28 12:10:48;;;;;;;9.48;1.58;;;7.50;99.90;;;;;;4996899;28;20046;-72
2021/11/28 12:13:27;;;;;;;11.93;1.70;;;7.40;99.90;;;;;;4988026;28;20640;-72
2021/11/28 12:16:18;;;;;;;34.22;2.95;;;7.50;99.90;;;;;;4990759;28;20043;-72
2021/11/28 12:18:50;;;;;;;14.48;1.70;;;7.50;99.90;;;;;;4990640;28;20046;-71
2021/11/28 12:21:36;;;;;;;8.63;1.63;;;7.40;99.90;;;;;;4989725;28;20097;-71
2021/11/28 12:24:19;;;;;;;9.48;1.50;;;7.30;99.90;;;;;;4988082;28;20497;-72
2021/11/28 12:27:02;;;;;;;10.80;1.20;;;7.30;99.90;;;;;;4986855;28;20086;-72
2021/11/28 12:29:34;;;;;;;9.95;1.33;;;7.30;99.90;;;;;;4990450;28;20548;-71
2021/11/28 12:32:16;;;;;;;13.52;1.65;;;7.30;99.90;;;;;;4991233;28;20042;-71
2021/11/28 12:34:49;;;;;;;15.10;1.60;;;7.40;99.90;;;;;;4984902;28;20081;-72
2021/11/28 12:37:24;;;;;;;16.15;1.63;;;7.30;99.90;;;;;;4988530;28;20081;-72
2021/11/28 12:39:53;;;;;;;7.10;1.33;;;7.20;99.90;;;;;;5006803;28;20042;-71
2021/11/28 12:42:21;;;;;;;14.27;1.92;;;7.10;99.90;;;;;;4981990;28;20046;-71
2021/11/28 12:44:51;;;;;;;14.15;1.70;;;7.10;99.90;;;;;;4990882;28;20252;-72
2021/11/28 12:47:26;;;;;;;9.10;1.23;;;7.10;99.90;;;;;;4983966;28;20450;-72
2021/11/28 12:50:19;;;;;;;8.60;1.20;;;7.00;99.90;;;;;;4985219;28;20047;-72
2021/11/28 12:53:03;;;;;;;4.85;1.08;;;7.00;99.90;;;;;;4982832;28;20046;-72
2021/11/28 12:55:30;;;;;;;10.00;2.05;;;6.90;99.90;;;;;;4990921;28;20666;-72
2021/11/28 12:57:58;;;;;;;6.90;1.50;;;6.90;99.90;;;;;;4991004;28;20062;-72
2021/11/28 13:00:58;;;;;;;5.70;1.10;;;6.80;99.90;;;;;;4983186;28;20038;-73
2021/11/28 13:03:26;;;;;;;6.35;1.20;;;6.70;99.90;;;;;;4982361;28;20039;-72
2021/11/28 13:05:55;;;;;;;7.90;1.23;;;6.70;99.90;;;;;;4979063;28;20046;-72
2021/11/28 13:08:21;;;;;;;11.52;1.10;;;6.60;99.90;;;;;;4981465;28;20070;-72